Time;durP1;ratioP1;P1;durP2;ratioP2;P2;SDS_P1;SDS_P2;PMS_P1;PMS_P2;Temp;Humidity;BMP_temperature;BMP_pressure;BME280_temperature;BME280_humidity;BME280_pressure;Samples;Min_cycle;Max_cycle;Signal;HPM_P1;HPM_P2
2022/10/15 00:00:26;;;;;;;28.33;15.40;;;11.20;99.90;;;;;;5104425;28;20106;-39
2022/10/15 00:02:52;;;;;;;28.02;15.73;;;11.20;99.90;;;;;;5104233;28;20040;-37
2022/10/15 00:05:17;;;;;;;33.35;16.23;;;11.20;99.90;;;;;;5108260;28;20807;-37
2022/10/15 00:07:43;;;;;;;31.92;16.85;;;11.20;99.90;;;;;;5109410;28;20569;-37
2022/10/15 00:10:09;;;;;;;27.63;15.48;;;11.20;99.90;;;;;;5102863;28;20463;-37
2022/10/15 00:12:34;;;;;;;31.08;15.95;;;11.20;99.90;;;;;;5097140;28;20089;-37
2022/10/15 00:15:01;;;;;;;21.90;13.55;;;11.20;99.90;;;;;;5098008;28;20024;-37
2022/10/15 00:17:26;;;;;;;28.77;15.18;;;11.30;99.90;;;;;;5104242;28;20062;-37
2022/10/15 00:19:53;;;;;;;24.83;15.27;;;11.30;99.90;;;;;;5102090;28;20039;-37
2022/10/15 00:22:18;;;;;;;32.80;15.95;;;11.30;99.90;;;;;;5101927;28;20040;-37
2022/10/15 00:24:44;;;;;;;30.45;15.82;;;11.30;99.90;;;;;;5104362;28;20079;-37
2022/10/15 00:27:10;;;;;;;26.02;15.32;;;11.30;99.90;;;;;;5101058;28;20509;-37
2022/10/15 00:29:35;;;;;;;32.17;16.17;;;11.40;99.90;;;;;;5109492;28;20035;-37
2022/10/15 00:32:01;;;;;;;27.48;15.80;;;11.40;99.90;;;;;;5099124;28;20040;-37
2022/10/15 00:34:27;;;;;;;24.23;13.98;;;11.40;99.90;;;;;;5106090;28;20031;-36
2022/10/15 00:36:52;;;;;;;30.17;17.17;;;11.40;99.90;;;;;;5104438;28;20484;-37
2022/10/15 00:39:18;;;;;;;23.60;13.07;;;11.40;99.90;;;;;;5097697;28;20048;-36
2022/10/15 00:41:44;;;;;;;30.73;15.30;;;11.40;99.90;;;;;;5105537;28;20036;-36
2022/10/15 00:44:27;;;;;;;25.45;14.13;;;11.40;99.90;;;;;;5083068;28;20097;-36
2022/10/15 00:47:08;;;;;;;29.00;15.55;;;11.50;99.90;;;;;;5098329;28;20036;-37
2022/10/15 00:49:39;;;;;;;28.35;14.75;;;11.50;99.90;;;;;;5105366;28;20040;-37
2022/10/15 00:52:34;;;;;;;25.90;15.32;;;11.50;99.90;;;;;;5099796;28;20105;-37
2022/10/15 00:55:09;;;;;;;25.02;14.15;;;11.50;99.90;;;;;;5103438;28;20084;-37
2022/10/15 00:57:35;;;;;;;24.23;14.52;;;11.50;99.90;;;;;;5104414;28;20454;-37
2022/10/15 01:00:07;;;;;;;24.70;15.98;;;11.50;99.90;;;;;;5107199;28;20046;-37
2022/10/15 01:02:32;;;;;;;25.55;15.20;;;11.50;99.90;;;;;;5098852;28;20114;-36
2022/10/15 01:04:58;;;;;;;24.13;14.55;;;11.50;99.90;;;;;;5103851;28;20126;-39
2022/10/15 01:07:24;;;;;;;27.25;14.15;;;11.50;99.90;;;;;;5105389;28;20047;-38
2022/10/15 01:09:50;;;;;;;25.73;14.88;;;11.50;99.90;;;;;;5101137;28;20532;-38
2022/10/15 01:12:44;;;;;;;26.55;14.50;;;11.50;99.90;;;;;;5101379;28;20032;-40
2022/10/15 01:15:25;;;;;;;24.42;14.77;;;11.50;99.90;;;;;;5096762;28;20130;-37
2022/10/15 01:18:06;;;;;;;23.40;13.63;;;11.50;99.90;;;;;;5102106;28;20040;-37
2022/10/15 01:20:47;;;;;;;25.88;13.15;;;11.50;99.90;;;;;;5103002;28;20039;-37
2022/10/15 01:23:13;;;;;;;22.73;13.90;;;11.50;99.90;;;;;;5080094;28;20119;-38
2022/10/15 01:25:57;;;;;;;24.30;13.60;;;11.50;99.90;;;;;;5102061;28;20172;-37
2022/10/15 01:28:51;;;;;;;21.88;13.60;;;11.50;99.90;;;;;;5104677;28;20176;-37
2022/10/15 01:31:22;;;;;;;24.42;13.70;;;11.50;99.90;;;;;;5102363;28;20036;-37
2022/10/15 01:34:01;;;;;;;22.85;12.93;;;11.50;99.90;;;;;;5100152;28;20036;-37
2022/10/15 01:36:44;;;;;;;19.58;12.07;;;11.50;99.90;;;;;;5106326;28;20044;-36
2022/10/15 01:39:19;;;;;;;20.10;11.75;;;11.50;99.90;;;;;;5100602;28;20207;-36
2022/10/15 01:41:54;;;;;;;20.52;12.18;;;11.40;99.90;;;;;;5103084;28;20523;-36
2022/10/15 01:44:30;;;;;;;22.48;13.25;;;11.50;99.90;;;;;;5095735;28;20036;-39
2022/10/15 01:47:03;;;;;;;25.52;13.60;;;11.40;99.90;;;;;;5101090;28;20043;-38
2022/10/15 01:49:37;;;;;;;23.70;12.55;;;11.40;99.90;;;;;;5096534;28;20039;-40
2022/10/15 01:52:08;;;;;;;20.67;11.57;;;11.40;99.90;;;;;;5081694;28;20090;-38
2022/10/15 01:54:36;;;;;;;24.55;12.15;;;11.40;99.90;;;;;;5106860;28;20080;-36
2022/10/15 01:57:03;;;;;;;26.08;13.77;;;11.40;99.90;;;;;;5101545;28;20570;-36
2022/10/15 01:59:31;;;;;;;21.40;12.45;;;11.40;99.90;;;;;;5100518;28;20412;-37
2022/10/15 02:01:57;;;;;;;20.52;11.55;;;11.40;99.90;;;;;;5098410;28;20098;-37
2022/10/15 02:04:25;;;;;;;22.45;13.02;;;11.40;99.90;;;;;;5100949;28;20039;-37
2022/10/15 02:07:10;;;;;;;19.17;11.32;;;11.40;99.90;;;;;;5108965;28;20539;-37
2022/10/15 02:10:03;;;;;;;20.55;12.88;;;11.40;99.90;;;;;;5094931;28;20051;-37
2022/10/15 02:13:16;;;;;;;22.75;12.85;;;11.40;99.90;;;;;;5102738;28;20040;-39
2022/10/15 02:16:05;;;;;;;;;;;11.40;99.90;;;;;;5039712;28;20037;-37
2022/10/15 02:19:04;;;;;;;20.63;11.38;;;11.40;99.90;;;;;;5082005;28;20295;-37
2022/10/15 02:22:05;;;;;;;17.83;10.63;;;11.40;99.90;;;;;;5097803;28;20040;-38
2022/10/15 02:24:42;;;;;;;19.15;10.05;;;11.40;99.90;;;;;;5086377;28;20055;-37
2022/10/15 02:27:09;;;;;;;25.42;12.95;;;11.40;99.90;;;;;;5107333;28;20059;-36
2022/10/15 02:29:37;;;;;;;23.80;13.48;;;11.40;99.90;;;;;;5100761;28;20048;-39
2022/10/15 02:32:06;;;;;;;22.25;12.55;;;11.50;99.90;;;;;;5102494;28;20036;-39
2022/10/15 02:34:33;;;;;;;21.10;12.45;;;11.50;99.90;;;;;;5100756;28;20031;-38
2022/10/15 02:37:01;;;;;;;23.25;12.85;;;11.50;99.90;;;;;;5104506;28;20043;-36
2022/10/15 02:39:27;;;;;;;18.08;10.40;;;11.50;99.90;;;;;;5100897;28;20047;-37
2022/10/15 02:41:54;;;;;;;22.73;11.93;;;11.50;99.90;;;;;;5100767;28;20043;-38
2022/10/15 02:44:20;;;;;;;20.90;12.27;;;11.50;99.90;;;;;;5103993;28;20065;-37
2022/10/15 02:46:46;;;;;;;24.48;13.00;;;11.50;99.90;;;;;;5101869;28;20044;-37
2022/10/15 02:49:11;;;;;;;22.23;12.77;;;11.50;99.90;;;;;;5103097;28;20040;-37
2022/10/15 02:51:37;;;;;;;24.70;14.57;;;11.50;99.90;;;;;;5102991;28;20477;-38
2022/10/15 02:54:05;;;;;;;26.98;13.88;;;11.50;99.90;;;;;;5102062;28;20039;-38
2022/10/15 02:56:30;;;;;;;21.92;12.35;;;11.50;99.90;;;;;;5100653;28;20043;-37
2022/10/15 02:58:56;;;;;;;23.83;14.13;;;11.50;99.90;;;;;;5101095;28;20042;-37
2022/10/15 03:01:22;;;;;;;23.55;13.25;;;11.40;99.90;;;;;;5100407;28;20078;-37
2022/10/15 03:03:47;;;;;;;22.20;13.50;;;11.40;99.90;;;;;;5096618;28;20035;-38
2022/10/15 03:06:13;;;;;;;24.02;13.60;;;11.40;99.90;;;;;;5099198;28;20511;-37
2022/10/15 03:08:41;;;;;;;27.05;13.48;;;11.40;99.90;;;;;;5097117;28;20504;-37
2022/10/15 03:11:07;;;;;;;29.30;14.80;;;11.40;99.90;;;;;;5098384;28;20496;-38
2022/10/15 03:13:40;;;;;;;32.28;15.27;;;11.40;99.90;;;;;;5099821;28;20042;-37
2022/10/15 03:16:07;;;;;;;23.92;12.85;;;11.30;99.90;;;;;;5099037;28;20509;-38
2022/10/15 03:18:33;;;;;;;28.10;14.77;;;11.30;99.90;;;;;;5102333;28;20063;-37
2022/10/15 03:20:59;;;;;;;28.65;15.82;;;11.30;99.90;;;;;;5108511;28;20492;-38
2022/10/15 03:23:25;;;;;;;28.15;15.00;;;11.30;99.90;;;;;;5106564;28;20035;-37
2022/10/15 03:25:51;;;;;;;27.92;14.52;;;11.30;99.90;;;;;;5101420;28;20206;-38
2022/10/15 03:28:17;;;;;;;31.40;17.90;;;11.30;99.90;;;;;;5106820;28;20050;-37
2022/10/15 03:30:43;;;;;;;30.33;16.58;;;11.20;99.90;;;;;;5103134;28;20078;-38
2022/10/15 03:33:09;;;;;;;32.65;17.05;;;11.20;99.90;;;;;;5109445;28;20394;-37
2022/10/15 03:35:35;;;;;;;31.05;16.15;;;11.20;99.90;;;;;;5106090;28;20469;-37
2022/10/15 03:38:01;;;;;;;40.00;18.50;;;11.20;99.90;;;;;;5096833;28;20050;-38
2022/10/15 03:40:26;;;;;;;35.58;17.63;;;11.20;99.90;;;;;;5100312;28;20508;-37
2022/10/15 03:42:52;;;;;;;32.20;17.98;;;11.20;99.90;;;;;;5109912;28;20126;-38
2022/10/15 03:45:22;;;;;;;33.97;17.63;;;11.20;99.90;;;;;;5103585;28;20036;-37
2022/10/15 03:47:48;;;;;;;27.60;15.90;;;11.20;99.90;;;;;;5109769;28;20115;-38
2022/10/15 03:50:14;;;;;;;35.75;18.33;;;11.20;99.90;;;;;;5108201;28;20535;-39
2022/10/15 03:52:40;;;;;;;38.45;19.25;;;11.30;99.90;;;;;;5096598;28;20036;-37
2022/10/15 03:55:08;;;;;;;36.65;19.67;;;11.20;99.90;;;;;;5082374;28;20111;-38
2022/10/15 03:57:34;;;;;;;35.97;19.52;;;11.30;99.90;;;;;;5105792;28;20108;-37
2022/10/15 04:00:00;;;;;;;43.70;20.95;;;11.30;99.90;;;;;;5083099;28;20485;-37
2022/10/15 04:02:26;;;;;;;36.97;19.42;;;11.30;99.90;;;;;;5105510;28;20043;-37
2022/10/15 04:04:52;;;;;;;42.35;20.67;;;11.30;99.90;;;;;;5105719;28;20094;-38
2022/10/15 04:07:21;;;;;;;37.67;19.77;;;11.30;99.90;;;;;;5108573;28;20369;-38
2022/10/15 04:09:46;;;;;;;39.97;20.00;;;11.30;99.90;;;;;;5096509;28;20059;-38
2022/10/15 04:12:13;;;;;;;42.38;21.67;;;11.40;99.90;;;;;;5098572;28;20035;-37
2022/10/15 04:14:39;;;;;;;43.13;20.70;;;11.40;99.90;;;;;;5108153;28;20031;-37
2022/10/15 04:17:05;;;;;;;38.72;19.10;;;11.30;99.90;;;;;;5105912;28;20047;-38
2022/10/15 04:19:31;;;;;;;35.45;19.52;;;11.30;99.90;;;;;;5097194;28;20409;-37
2022/10/15 04:21:57;;;;;;;34.67;17.73;;;11.30;99.90;;;;;;5106970;28;20309;-37
2022/10/15 04:24:22;;;;;;;40.15;20.77;;;11.20;99.90;;;;;;5101467;28;20036;-38
2022/10/15 04:26:48;;;;;;;41.63;20.20;;;11.20;99.90;;;;;;5099581;28;20189;-37
2022/10/15 04:29:14;;;;;;;39.20;18.52;;;11.20;99.90;;;;;;5106135;28;20039;-38
2022/10/15 04:31:41;;;;;;;42.33;20.52;;;11.20;99.90;;;;;;5101469;28;20040;-38
2022/10/15 04:34:08;;;;;;;38.92;19.25;;;11.20;99.90;;;;;;5097475;28;20519;-38
2022/10/15 04:36:33;;;;;;;41.15;21.52;;;11.20;99.90;;;;;;5102614;28;20043;-37
2022/10/15 04:38:59;;;;;;;35.38;17.80;;;11.20;99.90;;;;;;5099748;28;20074;-38
2022/10/15 04:41:25;;;;;;;39.20;21.55;;;11.20;99.90;;;;;;5097699;28;20039;-37
2022/10/15 04:43:51;;;;;;;43.80;21.17;;;11.20;99.90;;;;;;5102476;28;20056;-38
2022/10/15 04:46:17;;;;;;;47.78;22.60;;;11.20;99.90;;;;;;5107255;28;20358;-38
2022/10/15 04:48:43;;;;;;;46.58;23.33;;;11.20;99.90;;;;;;5103329;28;20035;-38
2022/10/15 04:51:12;;;;;;;42.17;20.02;;;11.20;99.90;;;;;;5098129;28;20536;-38
2022/10/15 04:53:38;;;;;;;47.92;21.27;;;11.20;99.90;;;;;;5102811;28;20508;-38
2022/10/15 04:56:06;;;;;;;49.20;22.67;;;11.20;99.90;;;;;;5102831;28;20039;-38
2022/10/15 04:58:33;;;;;;;47.67;23.25;;;11.30;99.90;;;;;;5104355;28;20130;-38
2022/10/15 05:01:00;;;;;;;47.80;22.27;;;11.30;99.90;;;;;;5081302;28;20112;-38
2022/10/15 05:03:26;;;;;;;51.42;23.10;;;11.30;99.90;;;;;;5106515;28;20062;-38
2022/10/15 05:05:51;;;;;;;45.75;22.50;;;11.30;99.90;;;;;;5100814;28;20532;-38
2022/10/15 05:08:17;;;;;;;47.25;21.45;;;11.30;99.90;;;;;;5101928;28;20477;-38
2022/10/15 05:10:43;;;;;;;38.45;19.23;;;11.30;99.90;;;;;;5102165;28;20115;-38
2022/10/15 05:13:08;;;;;;;41.75;20.20;;;11.30;99.90;;;;;;5097697;28;20131;-38
2022/10/15 05:15:34;;;;;;;48.50;21.52;;;11.30;99.90;;;;;;5105170;28;20031;-42
2022/10/15 05:18:00;;;;;;;51.80;24.02;;;11.30;99.90;;;;;;5099769;28;20127;-38
2022/10/15 05:20:25;;;;;;;49.22;23.20;;;11.40;99.90;;;;;;5100523;28;20036;-38
2022/10/15 05:22:51;;;;;;;51.50;24.30;;;11.40;99.90;;;;;;5103035;28;20039;-38
2022/10/15 05:25:17;;;;;;;48.67;22.85;;;11.40;99.90;;;;;;5100286;28;20052;-38
2022/10/15 05:27:43;;;;;;;47.10;22.25;;;11.40;99.90;;;;;;5099269;28;20047;-38
2022/10/15 05:30:09;;;;;;;46.10;21.50;;;11.40;99.90;;;;;;5101932;28;20032;-39
2022/10/15 05:32:34;;;;;;;48.05;21.55;;;11.40;99.90;;;;;;5101098;28;20543;-37
2022/10/15 05:35:00;;;;;;;46.70;22.15;;;11.40;99.90;;;;;;5100988;28;20055;-38
2022/10/15 05:37:26;;;;;;;45.95;21.33;;;11.40;99.90;;;;;;5105574;28;20039;-38
2022/10/15 05:39:51;;;;;;;44.28;22.17;;;11.40;99.90;;;;;;5104808;28;20050;-38
2022/10/15 05:42:17;;;;;;;44.78;20.85;;;11.40;99.90;;;;;;5099128;28;20040;-37
2022/10/15 05:44:43;;;;;;;43.08;20.98;;;11.40;99.90;;;;;;5105656;28;20043;-38
2022/10/15 05:47:10;;;;;;;46.17;21.45;;;11.40;99.90;;;;;;5095718;28;20044;-38
2022/10/15 05:49:37;;;;;;;45.80;21.15;;;11.40;99.90;;;;;;5103152;28;20054;-38
2022/10/15 05:52:03;;;;;;;52.15;23.20;;;11.40;99.90;;;;;;5102468;28;20036;-38
2022/10/15 05:54:28;;;;;;;45.95;22.67;;;11.50;99.90;;;;;;5104263;28;20089;-38
2022/10/15 05:56:54;;;;;;;48.20;23.08;;;11.50;99.90;;;;;;5087743;28;20039;-38
2022/10/15 05:59:19;;;;;;;43.40;22.60;;;11.50;99.90;;;;;;5097153;28;20562;-37
2022/10/15 06:01:45;;;;;;;42.88;20.95;;;11.50;99.90;;;;;;5099763;28;20082;-38
2022/10/15 06:04:11;;;;;;;49.38;21.95;;;11.60;99.90;;;;;;5101602;28;20123;-39
2022/10/15 06:06:36;;;;;;;45.85;21.70;;;11.60;99.90;;;;;;5104263;28;20605;-38
2022/10/15 06:09:02;;;;;;;49.17;22.23;;;11.60;99.90;;;;;;5098008;28;20047;-38
2022/10/15 06:11:28;;;;;;;51.63;22.52;;;11.60;99.90;;;;;;5093808;28;20039;-38
2022/10/15 06:13:54;;;;;;;48.08;22.40;;;11.60;99.90;;;;;;5100924;28;20046;-38
2022/10/15 06:16:19;;;;;;;46.53;22.10;;;11.60;99.90;;;;;;5105778;28;20119;-38
2022/10/15 06:18:45;;;;;;;48.13;22.33;;;11.60;99.90;;;;;;5105919;28;20069;-40
2022/10/15 06:21:12;;;;;;;45.65;21.48;;;11.60;99.90;;;;;;5105357;28;20039;-38
2022/10/15 06:23:37;;;;;;;43.58;20.10;;;11.60;99.90;;;;;;5097501;28;20127;-38
2022/10/15 06:26:05;;;;;;;43.05;21.15;;;11.60;99.90;;;;;;5096717;28;20135;-38
2022/10/15 06:28:32;;;;;;;47.65;22.00;;;11.60;99.90;;;;;;5094595;28;20071;-38
2022/10/15 06:31:01;;;;;;;45.42;20.67;;;11.60;99.90;;;;;;5094592;28;20032;-39
2022/10/15 06:33:27;;;;;;;46.65;21.75;;;11.60;99.90;;;;;;5105878;28;20028;-38
2022/10/15 06:35:53;;;;;;;43.33;22.55;;;11.60;99.90;;;;;;5099968;28;20111;-38
2022/10/15 06:38:19;;;;;;;44.40;21.75;;;11.60;99.90;;;;;;5101201;28;20569;-38
2022/10/15 06:40:45;;;;;;;47.97;21.63;;;11.60;99.90;;;;;;5097330;28;20027;-38
2022/10/15 06:43:11;;;;;;;37.75;19.15;;;11.60;99.90;;;;;;5102168;28;20491;-38
2022/10/15 06:45:38;;;;;;;44.70;21.45;;;11.60;99.90;;;;;;5095013;28;20473;-38
2022/10/15 06:48:05;;;;;;;46.92;21.95;;;11.60;99.90;;;;;;5106823;28;20032;-38
2022/10/15 06:50:32;;;;;;;46.08;22.77;;;11.60;99.90;;;;;;5100957;28;20046;-37
2022/10/15 06:52:58;;;;;;;46.10;21.92;;;11.60;99.90;;;;;;5097482;28;20051;-37
2022/10/15 06:55:23;;;;;;;46.08;21.60;;;11.60;99.90;;;;;;5103215;28;20515;-38
2022/10/15 06:57:49;;;;;;;48.53;22.13;;;11.60;99.90;;;;;;5094171;28;20047;-37
2022/10/15 07:00:16;;;;;;;47.97;22.15;;;11.60;99.90;;;;;;5094084;28;20110;-38
2022/10/15 07:02:42;;;;;;;45.30;21.00;;;11.60;99.90;;;;;;5059456;28;20084;-37
2022/10/15 07:05:08;;;;;;;49.70;22.95;;;11.60;99.90;;;;;;5098528;28;20172;-37
2022/10/15 07:07:33;;;;;;;41.80;23.48;;;11.60;99.90;;;;;;5099832;28;20065;-38
2022/10/15 07:09:59;;;;;;;51.28;23.60;;;11.60;99.90;;;;;;5103036;28;21516;-37
2022/10/15 07:12:25;;;;;;;41.38;21.45;;;11.60;99.90;;;;;;5098130;28;20392;-37
2022/10/15 07:14:50;;;;;;;35.90;18.42;;;11.60;99.90;;;;;;5098012;28;20032;-38
2022/10/15 07:17:16;;;;;;;48.50;22.40;;;11.60;99.90;;;;;;5096502;28;20040;-37
2022/10/15 07:19:43;;;;;;;45.53;21.95;;;11.60;99.90;;;;;;5102170;28;20115;-39
2022/10/15 07:22:09;;;;;;;38.60;21.17;;;11.60;99.90;;;;;;5095054;28;20044;-38
2022/10/15 07:24:35;;;;;;;51.75;22.95;;;11.70;99.90;;;;;;5101412;28;20461;-40
2022/10/15 07:27:01;;;;;;;51.22;23.38;;;11.70;99.90;;;;;;5100692;28;20592;-37
2022/10/15 07:29:26;;;;;;;48.35;23.08;;;11.70;99.90;;;;;;5099142;28;20032;-39
2022/10/15 07:31:52;;;;;;;46.30;23.23;;;11.70;99.90;;;;;;5095645;28;20039;-37
2022/10/15 07:34:18;;;;;;;49.05;25.15;;;11.80;99.90;;;;;;5103999;28;20079;-37
2022/10/15 07:36:43;;;;;;;52.65;24.77;;;11.80;99.90;;;;;;5093034;28;20064;-37
2022/10/15 07:39:09;;;;;;;47.28;22.02;;;11.80;99.90;;;;;;5096793;28;20112;-40
2022/10/15 07:41:35;;;;;;;45.88;23.92;;;11.90;99.90;;;;;;5094832;28;20036;-37
2022/10/15 07:44:01;;;;;;;48.95;24.65;;;11.90;99.90;;;;;;5090250;28;20035;-40
2022/10/15 07:46:27;;;;;;;53.88;24.48;;;12.00;99.90;;;;;;5084441;28;20382;-38
2022/10/15 07:48:55;;;;;;;54.47;24.58;;;12.10;99.90;;;;;;5101614;28;20119;-37
2022/10/15 07:51:21;;;;;;;52.70;25.80;;;12.10;99.90;;;;;;5092674;28;20085;-38
2022/10/15 07:53:47;;;;;;;54.15;25.92;;;12.20;99.90;;;;;;5093592;28;20036;-37
2022/10/15 07:56:14;;;;;;;51.63;22.52;;;12.20;99.90;;;;;;5097679;28;20118;-39
2022/10/15 07:58:40;;;;;;;65.25;26.73;;;12.30;99.90;;;;;;5094125;28;20036;-39
2022/10/15 08:01:08;;;;;;;55.95;24.45;;;12.30;99.90;;;;;;5095087;28;20389;-39
2022/10/15 08:03:34;;;;;;;62.85;24.92;;;12.30;99.90;;;;;;5104104;28;20044;-38
2022/10/15 08:06:02;;;;;;;52.03;23.20;;;12.40;99.90;;;;;;5095759;28;20039;-40
2022/10/15 08:08:28;;;;;;;54.72;23.60;;;12.40;99.90;;;;;;5107274;28;20046;-38
2022/10/15 08:10:54;;;;;;;53.75;23.63;;;12.40;99.90;;;;;;5098406;28;20872;-39
2022/10/15 08:13:20;;;;;;;50.92;23.38;;;12.40;99.90;;;;;;5080693;28;20175;-39
2022/10/15 08:15:46;;;;;;;47.78;22.00;;;12.40;99.90;;;;;;5099837;28;20036;-39
2022/10/15 08:18:12;;;;;;;53.63;24.88;;;12.40;99.90;;;;;;5098490;28;20514;-38
2022/10/15 08:20:38;;;;;;;57.63;24.20;;;12.40;99.90;;;;;;5100195;28;20035;-38
2022/10/15 08:23:05;;;;;;;50.72;21.42;;;12.50;99.90;;;;;;5100018;28;20032;-38
2022/10/15 08:25:31;;;;;;;48.22;20.98;;;12.50;99.90;;;;;;5102354;28;20096;-38
2022/10/15 08:27:57;;;;;;;52.47;23.00;;;12.50;99.90;;;;;;5105005;28;20047;-40
2022/10/15 08:30:24;;;;;;;56.03;23.45;;;12.50;99.90;;;;;;5101400;28;20043;-39
2022/10/15 08:32:49;;;;;;;50.10;22.20;;;12.50;99.90;;;;;;5103592;28;20055;-38
2022/10/15 08:35:15;;;;;;;54.65;22.20;;;12.50;99.90;;;;;;5105381;28;20051;-39
2022/10/15 08:37:41;;;;;;;48.97;22.25;;;12.60;99.90;;;;;;5103737;28;20039;-39
2022/10/15 08:40:08;;;;;;;53.40;22.10;;;12.60;99.90;;;;;;5102481;28;20517;-38
2022/10/15 08:42:41;;;;;;;49.80;21.60;;;12.60;99.90;;;;;;5100807;28;20081;-38
2022/10/15 08:45:11;;;;;;;;;;;12.70;99.90;;;;;;5107672;28;20055;-38
2022/10/15 08:47:46;;;;;;;37.47;16.73;;;12.70;99.90;;;;;;5104864;28;19920;-39
2022/10/15 08:50:47;;;;;;;42.10;18.15;;;12.80;99.90;;;;;;5109102;28;20106;-39
2022/10/15 08:53:18;;;;;;;36.10;17.50;;;12.80;99.90;;;;;;5102546;28;20036;-38
2022/10/15 08:55:47;;;;;;;39.17;18.48;;;12.80;99.90;;;;;;5095103;28;20035;-38
2022/10/15 08:58:33;;;;;;;29.67;14.73;;;12.80;99.90;;;;;;5110197;28;20044;-38
2022/10/15 09:01:06;;;;;;;26.83;13.18;;;12.90;99.90;;;;;;5099409;28;20070;-38
2022/10/15 09:03:42;;;;;;;;;;;12.90;99.90;;;;;;5101272;28;20063;-38
2022/10/15 09:06:24;;;;;;;23.52;12.30;;;12.90;99.90;;;;;;5095391;28;19916;-38
2022/10/15 09:08:57;;;;;;;24.10;11.73;;;13.00;99.90;;;;;;5102309;28;20067;-38
2022/10/15 09:11:45;;;;;;;23.80;11.32;;;13.00;99.90;;;;;;5099858;28;20083;-38
2022/10/15 09:14:15;;;;;;;25.95;13.20;;;13.10;99.90;;;;;;5108202;28;20035;-39
2022/10/15 09:16:45;;;;;;;24.55;12.77;;;13.20;99.90;;;;;;5102821;28;20071;-39
2022/10/15 09:19:21;;;;;;;22.58;12.27;;;13.20;99.90;;;;;;5104089;28;20035;-38
2022/10/15 09:21:48;;;;;;;20.77;11.73;;;13.40;99.90;;;;;;5098570;28;20089;-39
2022/10/15 09:24:23;;;;;;;22.20;12.05;;;13.40;99.90;;;;;;5100457;28;20044;-38
2022/10/15 09:26:52;;;;;;;20.27;11.32;;;13.50;99.90;;;;;;5100554;28;20508;-38
2022/10/15 09:29:34;;;;;;;19.40;10.05;;;13.50;99.90;;;;;;5105746;28;20040;-38
2022/10/15 09:32:19;;;;;;;18.48;9.98;;;13.60;99.90;;;;;;5104264;28;20540;-39
2022/10/15 09:34:59;;;;;;;17.13;9.45;;;13.70;99.90;;;;;;5099962;28;20038;-38
2022/10/15 09:37:49;;;;;;;17.52;9.48;;;13.80;99.90;;;;;;5103996;28;20527;-38
2022/10/15 09:40:29;;;;;;;17.38;8.73;;;13.80;99.90;;;;;;5102331;28;20035;-38
2022/10/15 09:42:58;;;;;;;17.38;9.45;;;13.80;99.90;;;;;;5098929;28;20038;-39
2022/10/15 09:45:23;;;;;;;18.02;9.95;;;13.90;99.90;;;;;;5109328;28;20824;-40
2022/10/15 09:47:50;;;;;;;18.15;8.38;;;14.00;99.90;;;;;;5100124;28;20046;-39
2022/10/15 09:50:16;;;;;;;15.65;7.90;;;14.00;99.90;;;;;;5102865;28;20044;-40
2022/10/15 09:52:48;;;;;;;15.15;6.60;;;14.10;99.90;;;;;;5107868;28;20064;-40
2022/10/15 09:55:36;;;;;;;12.55;7.43;;;14.10;99.90;;;;;;5098409;28;20389;-40
2022/10/15 09:58:16;;;;;;;12.48;7.47;;;14.10;99.90;;;;;;5096705;28;20089;-40
2022/10/15 10:00:58;;;;;;;16.77;7.65;;;14.20;99.90;;;;;;5101911;28;20039;-40
2022/10/15 10:03:26;;;;;;;13.48;7.85;;;14.20;99.90;;;;;;5101796;28;20487;-40
2022/10/15 10:06:03;;;;;;;17.48;9.13;;;14.20;99.90;;;;;;5103144;28;20081;-39
2022/10/15 10:08:51;;;;;;;15.20;8.23;;;14.30;99.90;;;;;;5105694;28;20580;-40
2022/10/15 10:11:18;;;;;;;16.67;9.65;;;14.30;99.90;;;;;;5085407;28;20393;-40
2022/10/15 10:13:47;;;;;;;15.65;8.95;;;14.40;99.90;;;;;;5104472;28;20211;-42
2022/10/15 10:16:14;;;;;;;16.13;9.10;;;14.50;99.90;;;;;;5105055;28;20032;-38
2022/10/15 10:18:41;;;;;;;14.70;9.38;;;14.60;99.90;;;;;;5105812;28;20047;-40
2022/10/15 10:21:27;;;;;;;15.10;8.55;;;14.70;99.90;;;;;;5100680;28;20043;-40
2022/10/15 10:23:53;;;;;;;15.68;9.63;;;14.70;99.90;;;;;;5093768;28;20067;-39
2022/10/15 10:26:19;;;;;;;15.75;9.38;;;14.70;99.90;;;;;;5098390;28;20181;-39
2022/10/15 10:28:55;;;;;;;16.55;9.68;;;14.60;99.90;;;;;;5103557;28;20574;-39
2022/10/15 10:31:34;;;;;;;15.68;9.35;;;14.60;99.90;;;;;;5103145;28;20237;-39
2022/10/15 10:34:02;;;;;;;18.90;9.82;;;14.50;99.90;;;;;;5086523;28;20039;-38
2022/10/15 10:36:32;;;;;;;15.45;9.95;;;14.50;99.90;;;;;;5097536;28;20524;-39
2022/10/15 10:39:13;;;;;;;18.13;10.27;;;14.50;99.90;;;;;;5077762;28;20089;-39
2022/10/15 10:41:52;;;;;;;16.92;9.60;;;14.60;99.90;;;;;;5097491;28;20079;-39
2022/10/15 10:44:28;;;;;;;17.10;10.27;;;14.70;99.90;;;;;;5097435;28;20075;-39
2022/10/15 10:47:21;;;;;;;16.52;9.70;;;14.80;99.90;;;;;;5102858;28;20044;-39
2022/10/15 10:49:56;;;;;;;17.95;9.93;;;14.90;99.90;;;;;;5087638;28;20500;-40
2022/10/15 10:52:30;;;;;;;14.85;9.48;;;15.00;99.90;;;;;;5103436;28;20036;-39
2022/10/15 10:55:01;;;;;;;18.67;10.15;;;15.20;99.90;;;;;;5096465;28;20489;-39
2022/10/15 10:57:39;;;;;;;15.57;9.48;;;15.30;99.90;;;;;;5095236;28;20043;-39
2022/10/15 11:00:07;;;;;;;18.23;10.20;;;15.30;99.90;;;;;;5103901;28;20533;-39
2022/10/15 11:02:38;;;;;;;16.05;9.20;;;15.30;99.90;;;;;;5107264;28;20404;-39
2022/10/15 11:05:04;;;;;;;15.00;9.25;;;15.20;99.90;;;;;;5101248;28;20040;-39
2022/10/15 11:07:44;;;;;;;18.33;10.27;;;15.20;99.90;;;;;;5102588;28;20051;-40
2022/10/15 11:10:18;;;;;;;15.32;9.52;;;15.20;99.90;;;;;;5103720;28;20587;-38
2022/10/15 11:12:51;;;;;;;14.45;8.95;;;15.20;99.90;;;;;;5077823;28;20488;-39
2022/10/15 11:15:26;;;;;;;13.38;7.72;;;15.20;99.90;;;;;;5105978;28;20401;-39
2022/10/15 11:18:23;;;;;;;12.55;8.25;;;15.20;99.90;;;;;;5096473;28;20044;-39
2022/10/15 11:20:55;;;;;;;12.52;7.30;;;15.10;99.90;;;;;;5102920;28;20040;-39
2022/10/15 11:23:53;;;;;;;13.50;7.57;;;15.10;99.90;;;;;;5099550;28;20035;-39
2022/10/15 11:26:39;;;;;;;13.77;8.52;;;15.10;99.90;;;;;;5092851;28;20143;-39
2022/10/15 11:29:30;;;;;;;13.75;8.45;;;15.00;99.90;;;;;;5092070;28;20040;-40
2022/10/15 11:32:28;;;;;;;13.00;8.43;;;15.00;99.90;;;;;;5091594;28;20048;-39
2022/10/15 11:35:05;;;;;;;13.80;8.55;;;15.10;99.90;;;;;;5097627;28;20051;-39
2022/10/15 11:37:37;;;;;;;13.15;8.23;;;15.20;99.90;;;;;;5105799;28;20078;-40
2022/10/15 11:40:18;;;;;;;;;;;15.20;99.90;;;;;;5110349;28;20039;-45
2022/10/15 11:42:55;;;;;;;15.60;8.25;;;15.30;99.90;;;;;;5102479;28;20148;-39
2022/10/15 11:45:27;;;;;;;14.07;8.82;;;15.30;99.90;;;;;;5105067;28;20168;-39
2022/10/15 11:48:03;;;;;;;13.50;8.00;;;15.30;99.90;;;;;;5108093;28;20493;-54
2022/10/15 11:50:46;;;;;;;16.58;9.27;;;15.20;99.90;;;;;;5105183;28;20066;-43
2022/10/15 11:53:32;;;;;;;12.82;8.38;;;15.20;99.90;;;;;;5105406;28;20519;-39
2022/10/15 11:56:12;;;;;;;11.48;7.68;;;15.20;99.90;;;;;;5098981;28;20043;-39
2022/10/15 11:58:46;;;;;;;14.50;8.70;;;15.20;99.90;;;;;;5103470;28;20488;-39
2022/10/15 12:01:27;;;;;;;13.60;8.50;;;15.20;99.90;;;;;;5098188;28;20036;-39
2022/10/15 12:03:58;;;;;;;13.98;8.70;;;15.10;99.90;;;;;;5099523;28;20085;-39
2022/10/15 12:06:35;;;;;;;14.25;8.30;;;15.10;99.90;;;;;;5100464;28;20048;-39
2022/10/15 12:09:03;;;;;;;15.52;8.63;;;15.10;99.90;;;;;;5106092;28;20077;-39
2022/10/15 12:11:50;;;;;;;15.82;9.30;;;15.20;99.90;;;;;;5106906;28;20043;-39
2022/10/15 12:14:42;;;;;;;16.58;8.77;;;15.20;99.90;;;;;;5103711;28;20062;-38
2022/10/15 12:17:15;;;;;;;15.68;9.05;;;15.20;99.90;;;;;;5097744;28;20036;-41
2022/10/15 12:19:59;;;;;;;13.80;8.18;;;15.20;99.90;;;;;;5100294;28;20047;-38
2022/10/15 12:22:56;;;;;;;17.30;8.40;;;15.10;99.90;;;;;;5104364;28;20036;-39
2022/10/15 12:25:33;;;;;;;14.65;7.43;;;15.10;99.90;;;;;;5102443;28;20496;-39
2022/10/15 12:28:14;;;;;;;14.15;8.25;;;15.10;99.90;;;;;;5101415;28;20044;-40
2022/10/15 12:30:42;;;;;;;17.58;8.90;;;15.00;99.90;;;;;;5096613;28;20102;-40
2022/10/15 12:33:34;;;;;;;12.90;7.80;;;15.00;99.90;;;;;;5108849;28;20492;-42
2022/10/15 12:36:20;;;;;;;11.20;7.10;;;15.00;99.90;;;;;;5078173;28;20024;-43
2022/10/15 12:39:00;;;;;;;12.63;7.10;;;15.00;99.90;;;;;;5092534;28;20586;-39
2022/10/15 12:41:52;;;;;;;10.40;6.45;;;15.00;99.90;;;;;;5098896;28;20097;-39
2022/10/15 12:44:29;;;;;;;10.80;6.82;;;14.90;99.90;;;;;;5094996;28;20130;-40
2022/10/15 12:46:56;;;;;;;10.70;6.10;;;14.90;99.90;;;;;;5100325;28;20036;-41
2022/10/15 12:49:29;;;;;;;11.50;6.55;;;14.90;99.90;;;;;;5102689;28;20118;-39